Time;durP1;ratioP1;P1;durP2;ratioP2;P2;SDS_P1;SDS_P2;PMS_P1;PMS_P2;Temp;Humidity;BMP_temperature;BMP_pressure;BME280_temperature;BME280_humidity;BME280_pressure;Samples;Min_cycle;Max_cycle;Signal;HPM_P1;HPM_P2
2022/08/15 00:01:36;;;;;;;7.90;3.83;;;29.20;38.90;;;;;;4989831;28;20205;-90
2022/08/15 00:04:08;;;;;;;11.33;4.70;;;29.20;39.30;;;;;;4987071;28;20670;-91
2022/08/15 00:06:39;;;;;;;9.47;4.27;;;29.20;39.20;;;;;;4986489;28;20686;-90
2022/08/15 00:09:09;;;;;;;17.27;5.80;;;29.10;39.30;;;;;;4989258;28;20206;-90
2022/08/15 00:11:40;;;;;;;9.77;4.43;;;29.10;39.50;;;;;;4987119;28;20284;-91
2022/08/15 00:14:27;;;;;;;12.20;5.10;;;29.00;39.60;;;;;;4987595;28;20210;-91
2022/08/15 00:17:02;;;;;;;13.10;5.30;;;29.00;40.10;;;;;;4987227;28;20296;-91
2022/08/15 00:19:32;;;;;;;17.50;6.23;;;29.00;40.10;;;;;;4987721;28;20682;-91
2022/08/15 00:22:02;;;;;;;10.60;5.23;;;28.90;39.90;;;;;;4986910;28;20232;-91
2022/08/15 00:24:32;;;;;;;17.50;6.90;;;28.90;40.00;;;;;;4985464;28;21718;-90
2022/08/15 00:27:01;;;;;;;12.17;5.40;;;28.80;40.00;;;;;;4988785;28;20217;-91
2022/08/15 00:29:31;;;;;;;15.87;6.67;;;28.80;40.20;;;;;;4986758;28;20339;-91
2022/08/15 00:31:58;;;;;;;13.87;5.03;;;28.70;40.30;;;;;;4969479;28;20233;-90
2022/08/15 00:34:25;;;;;;;14.77;6.50;;;28.60;40.20;;;;;;4979309;28;20706;-91
2022/08/15 00:37:03;;;;;;;16.27;6.00;;;28.60;40.30;;;;;;4987133;28;20220;-91
2022/08/15 00:39:31;;;;;;;12.13;5.27;;;28.60;41.00;;;;;;4988004;28;20198;-91
2022/08/15 00:42:00;;;;;;;10.63;4.57;;;28.50;40.60;;;;;;4987054;28;20737;-91
2022/08/15 00:44:32;;;;;;;14.53;5.57;;;28.50;40.90;;;;;;4986567;28;20202;-92
2022/08/15 00:47:01;;;;;;;13.83;5.57;;;28.40;41.00;;;;;;4987845;28;20206;-91
2022/08/15 00:49:31;;;;;;;17.80;7.27;;;28.40;41.10;;;;;;4985759;28;20210;-91
2022/08/15 00:52:03;;;;;;;13.20;6.03;;;28.40;41.20;;;;;;4987422;28;20253;-91
2022/08/15 00:54:54;;;;;;;12.23;5.57;;;28.30;41.50;;;;;;4992246;28;20309;-91
2022/08/15 00:57:25;;;;;;;15.70;6.60;;;28.30;42.20;;;;;;4987038;28;20206;-91
2022/08/15 01:00:12;;;;;;;10.37;4.73;;;28.20;41.50;;;;;;4987260;28;20265;-91
2022/08/15 01:02:39;;;;;;;10.53;5.37;;;28.20;42.40;;;;;;4987539;28;20369;-93
2022/08/15 01:05:10;;;;;;;12.93;5.37;;;28.20;41.90;;;;;;4986165;28;20214;-93
2022/08/15 01:07:44;;;;;;;6.67;3.63;;;28.10;42.10;;;;;;4990268;28;20215;-94
2022/08/15 01:10:13;;;;;;;15.53;6.43;;;28.10;42.50;;;;;;4988882;28;20201;-93
2022/08/15 01:12:40;;;;;;;10.17;5.60;;;28.00;42.50;;;;;;4982814;28;20230;-90
2022/08/15 01:15:12;;;;;;;12.83;5.43;;;28.00;42.50;;;;;;4985088;28;20872;-91
2022/08/15 01:17:40;;;;;;;12.03;5.50;;;28.00;42.90;;;;;;4986544;28;20875;-91
2022/08/15 01:20:13;;;;;;;10.77;5.60;;;27.90;42.50;;;;;;4986417;28;20325;-90
2022/08/15 01:23:03;;;;;;;12.53;6.13;;;27.90;43.20;;;;;;4989515;28;20256;-92
2022/08/15 01:25:38;;;;;;;11.47;5.23;;;27.80;43.40;;;;;;4988645;28;20205;-90
2022/08/15 01:28:08;;;;;;;23.10;8.97;;;27.80;43.10;;;;;;5009994;28;20184;-91
2022/08/15 01:30:39;;;;;;;17.03;7.43;;;27.80;43.10;;;;;;5012932;28;20186;-92
2022/08/15 01:33:08;;;;;;;8.70;4.67;;;27.80;43.10;;;;;;5012317;28;20233;-89
2022/08/15 01:35:36;;;;;;;10.67;4.73;;;27.80;43.60;;;;;;4997581;28;20198;-91
2022/08/15 01:38:19;;;;;;;8.77;4.57;;;27.80;43.60;;;;;;4985877;28;20205;-91
2022/08/15 01:40:55;;;;;;;15.77;6.63;;;27.70;43.70;;;;;;4999151;28;20310;-91
2022/08/15 01:43:28;;;;;;;9.80;5.27;;;27.70;44.10;;;;;;4996568;28;20201;-90
2022/08/15 01:45:56;;;;;;;21.33;8.40;;;27.70;44.30;;;;;;4994318;28;20848;-91
2022/08/15 01:48:30;;;;;;;10.60;5.17;;;27.70;44.10;;;;;;4992221;28;20206;-90
2022/08/15 01:51:02;;;;;;;9.73;4.97;;;27.70;44.30;;;;;;4991708;28;20260;-92
2022/08/15 01:53:41;;;;;;;7.93;4.77;;;27.70;44.60;;;;;;4990528;28;20323;-90
2022/08/15 01:56:24;;;;;;;;;;;;;;;;;;;;;
2022/08/15 01:58:51;;;;;;;11.40;5.57;;;27.60;44.70;;;;;;4989311;28;20198;-90
2022/08/15 02:01:22;;;;;;;16.53;5.97;;;27.60;44.60;;;;;;4991547;28;20214;-90
2022/08/15 02:03:50;;;;;;;14.33;6.73;;;27.50;44.90;;;;;;4991192;28;20205;-91
2022/08/15 02:06:21;;;;;;;11.50;5.77;;;27.50;45.10;;;;;;4982826;28;20211;-91
2022/08/15 02:08:51;;;;;;;8.77;5.20;;;27.50;45.20;;;;;;4981272;28;20285;-90
2022/08/15 02:11:22;;;;;;;10.00;5.50;;;27.40;45.30;;;;;;4991222;28;20793;-91
2022/08/15 02:13:54;;;;;;;10.87;5.70;;;27.40;45.60;;;;;;4989720;28;20230;-90
2022/08/15 02:16:23;;;;;;;11.43;6.13;;;27.40;45.60;;;;;;4988949;28;20202;-90
2022/08/15 02:18:51;;;;;;;17.80;8.03;;;27.30;45.70;;;;;;4989426;28;20218;-89
2022/08/15 02:21:19;;;;;;;10.90;5.70;;;27.30;45.70;;;;;;4989941;28;20248;-90
2022/08/15 02:23:46;;;;;;;13.00;6.10;;;27.30;46.00;;;;;;4986640;28;20288;-91
2022/08/15 02:26:14;;;;;;;10.80;5.23;;;27.20;46.10;;;;;;4988256;28;20643;-90
2022/08/15 02:28:44;;;;;;;11.87;6.40;;;27.20;46.20;;;;;;4990792;28;20396;-90
2022/08/15 02:31:16;;;;;;;15.83;7.07;;;27.20;46.80;;;;;;4987223;28;20707;-91
2022/08/15 02:33:48;;;;;;;14.37;7.00;;;27.20;46.80;;;;;;4988502;28;20222;-90
2022/08/15 02:36:17;;;;;;;11.23;6.73;;;27.10;46.60;;;;;;4988358;28;20194;-89
2022/08/15 02:38:45;;;;;;;10.97;6.40;;;27.10;46.80;;;;;;4991259;28;20333;-90
2022/08/15 02:41:14;;;;;;;12.60;5.87;;;27.10;46.80;;;;;;4988111;28;20198;-90
2022/08/15 02:43:45;;;;;;;10.83;6.00;;;27.00;47.10;;;;;;4989552;28;20260;-91
2022/08/15 02:46:13;;;;;;;12.57;6.67;;;27.00;47.40;;;;;;4989929;28;20257;-90
2022/08/15 02:48:41;;;;;;;11.77;6.53;;;26.90;47.30;;;;;;4993066;28;20210;-91
2022/08/15 02:51:09;;;;;;;11.20;6.50;;;26.90;47.30;;;;;;4996078;28;20242;-92
2022/08/15 02:53:36;;;;;;;22.27;8.77;;;26.90;47.30;;;;;;4990949;28;20288;-91
2022/08/15 02:56:06;;;;;;;10.43;5.20;;;26.80;47.40;;;;;;4991302;28;20211;-89
2022/08/15 02:58:33;;;;;;;17.17;7.40;;;26.80;47.70;;;;;;4989110;28;20214;-90
2022/08/15 03:01:05;;;;;;;14.37;7.40;;;26.80;47.90;;;;;;4990113;28;20214;-90
2022/08/15 03:03:54;;;;;;;14.20;7.83;;;26.80;48.30;;;;;;4988786;28;20215;-91
2022/08/15 03:06:25;;;;;;;10.53;5.80;;;26.70;48.60;;;;;;4980648;28;20261;-90
2022/08/15 03:08:53;;;;;;;9.43;5.90;;;26.70;48.20;;;;;;4988205;28;20214;-90
2022/08/15 03:11:21;;;;;;;15.10;7.20;;;26.70;48.20;;;;;;4990717;28;20206;-90
2022/08/15 03:13:48;;;;;;;20.27;9.50;;;26.70;48.70;;;;;;4985019;28;20234;-90
2022/08/15 03:16:17;;;;;;;12.77;7.10;;;26.60;48.60;;;;;;4988095;28;20213;-91
2022/08/15 03:18:44;;;;;;;20.87;9.00;;;26.60;48.90;;;;;;4987739;28;20770;-89
2022/08/15 03:21:14;;;;;;;9.83;5.63;;;26.60;49.00;;;;;;4987805;28;20868;-90
2022/08/15 03:23:48;;;;;;;17.50;8.23;;;26.60;49.20;;;;;;4988087;28;20300;-90
2022/08/15 03:26:16;;;;;;;12.30;6.90;;;26.60;49.40;;;;;;4987488;28;20622;-90
2022/08/15 03:28:43;;;;;;;19.83;9.53;;;26.60;49.40;;;;;;4988226;28;20202;-90
2022/08/15 03:31:10;;;;;;;13.97;7.10;;;26.60;49.40;;;;;;4993324;28;20737;-90
2022/08/15 03:33:51;;;;;;;15.63;7.50;;;26.50;49.40;;;;;;4998640;28;20218;-90
2022/08/15 03:36:20;;;;;;;13.03;7.33;;;26.50;50.30;;;;;;4993134;28;20292;-91
2022/08/15 03:38:48;;;;;;;13.90;6.90;;;26.50;49.80;;;;;;4988172;28;20215;-90
2022/08/15 03:41:25;;;;;;;12.87;6.73;;;26.50;49.90;;;;;;4989396;28;20300;-91
2022/08/15 03:43:53;;;;;;;10.07;6.07;;;26.50;50.80;;;;;;4989806;28;20606;-90
2022/08/15 03:46:21;;;;;;;11.50;6.70;;;26.40;50.00;;;;;;4987894;28;20206;-90
2022/08/15 03:48:51;;;;;;;12.93;7.00;;;26.40;50.30;;;;;;4985959;28;20623;-91
2022/08/15 03:51:21;;;;;;;22.33;10.30;;;26.40;50.30;;;;;;4979408;28;20210;-91
2022/08/15 03:53:51;;;;;;;12.60;7.17;;;26.40;50.70;;;;;;4987784;28;20292;-91
2022/08/15 03:56:22;;;;;;;16.53;7.90;;;26.40;50.80;;;;;;4987769;28;20265;-91
2022/08/15 03:58:50;;;;;;;18.93;9.37;;;26.40;50.80;;;;;;4973627;28;20256;-90
2022/08/15 04:01:19;;;;;;;12.17;7.37;;;26.40;50.80;;;;;;4984144;28;20618;-90
2022/08/15 04:03:48;;;;;;;13.37;7.50;;;26.30;51.00;;;;;;4989596;28;20623;-91
2022/08/15 04:06:20;;;;;;;12.10;7.43;;;26.30;51.30;;;;;;4988850;28;20206;-91
2022/08/15 04:08:48;;;;;;;18.27;8.63;;;26.30;51.50;;;;;;4972431;28;20221;-90
2022/08/15 04:11:17;;;;;;;11.40;7.50;;;26.30;51.50;;;;;;4989465;28;20974;-90
2022/08/15 04:13:45;;;;;;;10.90;6.20;;;26.20;51.50;;;;;;4988618;28;20324;-90
2022/08/15 04:16:25;;;;;;;20.67;9.03;;;26.20;51.50;;;;;;4989192;28;20206;-90
2022/08/15 04:18:52;;;;;;;11.67;6.97;;;26.20;52.40;;;;;;4988122;28;20254;-89
2022/08/15 04:21:24;;;;;;;12.67;7.60;;;26.10;51.60;;;;;;4989579;28;20289;-90
2022/08/15 04:23:51;;;;;;;19.00;8.10;;;26.10;52.00;;;;;;4985550;28;20301;-91
2022/08/15 04:26:19;;;;;;;13.07;7.57;;;26.00;52.10;;;;;;4974435;28;20654;-91
2022/08/15 04:28:47;;;;;;;13.63;7.70;;;26.00;52.10;;;;;;4977616;28;20211;-91
2022/08/15 04:31:20;;;;;;;13.80;7.77;;;26.00;52.20;;;;;;4988810;28;20264;-91
2022/08/15 04:33:49;;;;;;;14.13;7.87;;;26.00;52.70;;;;;;4995685;28;20224;-90
2022/08/15 04:36:21;;;;;;;10.83;6.90;;;26.00;52.50;;;;;;4988176;28;20245;-90
2022/08/15 04:38:51;;;;;;;12.80;7.63;;;26.00;53.10;;;;;;4989018;28;20289;-91
2022/08/15 04:41:19;;;;;;;14.00;7.60;;;25.90;52.80;;;;;;4987696;28;20228;-90
2022/08/15 04:43:46;;;;;;;14.40;7.07;;;26.00;53.00;;;;;;4988769;28;20572;-90
2022/08/15 04:46:13;;;;;;;15.90;8.43;;;25.90;52.90;;;;;;4987564;28;20206;-90
2022/08/15 04:48:44;;;;;;;13.50;7.50;;;25.90;53.00;;;;;;4988329;28;20229;-91
2022/08/15 04:51:11;;;;;;;11.10;7.40;;;25.90;53.40;;;;;;4988511;28;20206;-90
2022/08/15 04:53:39;;;;;;;13.27;7.67;;;25.90;53.20;;;;;;4986352;28;20250;-89
2022/08/15 04:56:07;;;;;;;13.17;6.90;;;25.90;53.50;;;;;;4986842;28;20253;-90
2022/08/15 04:58:41;;;;;;;13.47;7.27;;;25.90;53.40;;;;;;4986571;28;20202;-90
2022/08/15 05:01:12;;;;;;;12.17;7.37;;;25.80;53.70;;;;;;4987874;28;20210;-89
2022/08/15 05:03:40;;;;;;;16.03;7.87;;;25.90;53.80;;;;;;4991786;28;20206;-90
2022/08/15 05:06:11;;;;;;;11.80;6.90;;;25.90;53.50;;;;;;4985698;28;20204;-90
2022/08/15 05:08:40;;;;;;;12.57;7.43;;;25.90;53.80;;;;;;4989216;28;21024;-89
2022/08/15 05:11:10;;;;;;;12.70;7.43;;;25.80;53.80;;;;;;4987210;28;20610;-90
2022/08/15 05:13:40;;;;;;;12.27;7.30;;;25.80;54.00;;;;;;4986575;28;20234;-90
2022/08/15 05:16:10;;;;;;;18.47;8.83;;;25.80;54.00;;;;;;4987459;28;20214;-89
2022/08/15 05:18:39;;;;;;;13.30;7.43;;;25.80;54.20;;;;;;4987377;28;20226;-90
2022/08/15 05:21:13;;;;;;;12.40;7.43;;;25.80;54.10;;;;;;4988645;28;20206;-91
2022/08/15 05:23:45;;;;;;;13.97;7.67;;;25.80;54.20;;;;;;4988756;28;20213;-88
2022/08/15 05:26:19;;;;;;;9.40;6.20;;;25.80;54.30;;;;;;4988341;28;20234;-89
2022/08/15 05:28:47;;;;;;;14.13;7.90;;;25.80;54.40;;;;;;4988090;28;20564;-91
2022/08/15 05:31:14;;;;;;;17.33;7.93;;;25.80;54.20;;;;;;4988927;28;20240;-91
2022/08/15 05:33:54;;;;;;;11.27;6.97;;;25.90;54.80;;;;;;4987499;28;20233;-90
2022/08/15 05:36:22;;;;;;;17.97;8.40;;;25.90;55.10;;;;;;4989017;28;20568;-90
2022/08/15 05:38:58;;;;;;;12.43;7.00;;;25.90;54.90;;;;;;4988783;28;20229;-89
2022/08/15 05:41:34;;;;;;;17.40;8.27;;;25.90;54.60;;;;;;4998129;28;20237;-91
2022/08/15 05:44:08;;;;;;;10.50;7.00;;;26.00;54.50;;;;;;4988553;28;20221;-90
2022/08/15 05:46:43;;;;;;;12.67;7.07;;;25.90;54.20;;;;;;4982385;28;20227;-90
2022/08/15 05:49:24;;;;;;;13.70;8.00;;;26.00;54.60;;;;;;4977749;28;20252;-92
2022/08/15 05:52:03;;;;;;;12.50;6.83;;;26.00;54.70;;;;;;4970502;28;20219;-92
2022/08/15 05:54:44;;;;;;;12.70;7.30;;;26.00;54.70;;;;;;4987993;28;20230;-91
2022/08/15 05:57:16;;;;;;;13.80;8.07;;;26.00;54.60;;;;;;4974988;28;20297;-91
2022/08/15 05:59:50;;;;;;;10.23;6.97;;;26.10;54.60;;;;;;4989270;28;20226;-90
2022/08/15 06:02:26;;;;;;;13.07;7.33;;;26.10;54.80;;;;;;4988144;28;20206;-90
2022/08/15 06:04:59;;;;;;;13.13;7.07;;;26.10;54.70;;;;;;4988409;28;20216;-90
2022/08/15 06:07:28;;;;;;;14.57;7.80;;;26.10;54.80;;;;;;4987743;28;20276;-90
2022/08/15 06:10:01;;;;;;;14.17;7.13;;;26.10;54.70;;;;;;4986987;28;20664;-90
2022/08/15 06:12:34;;;;;;;11.73;7.93;;;26.10;55.00;;;;;;4987289;28;20871;-89
2022/08/15 06:15:06;;;;;;;11.97;7.20;;;26.00;54.90;;;;;;4985311;28;20233;-89
2022/08/15 06:17:39;;;;;;;14.30;8.17;;;26.00;54.90;;;;;;4990845;28;20285;-89
2022/08/15 06:20:10;;;;;;;12.03;7.00;;;26.10;55.20;;;;;;4991546;28;20305;-90
2022/08/15 06:22:51;;;;;;;12.40;8.37;;;26.10;55.20;;;;;;4989982;28;20225;-90
2022/08/15 06:25:42;;;;;;;19.17;9.50;;;26.10;55.60;;;;;;4990608;28;20237;-91
2022/08/15 06:28:28;;;;;;;17.93;8.47;;;26.10;55.90;;;;;;4989961;28;20321;-88
2022/08/15 06:31:03;;;;;;;14.67;8.90;;;26.10;56.00;;;;;;4989536;28;20217;-90
2022/08/15 06:33:40;;;;;;;12.40;8.37;;;26.00;55.80;;;;;;4989741;28;20241;-90
2022/08/15 06:36:15;;;;;;;12.17;8.00;;;26.00;55.80;;;;;;4990168;28;20234;-88
2022/08/15 06:38:49;;;;;;;12.83;7.50;;;26.10;55.90;;;;;;4990035;28;20569;-90
2022/08/15 06:41:25;;;;;;;13.87;7.57;;;26.10;55.90;;;;;;4989224;28;20208;-89
2022/08/15 06:43:57;;;;;;;13.27;7.67;;;26.10;56.20;;;;;;4989419;28;20623;-90
2022/08/15 06:46:27;;;;;;;17.70;9.17;;;26.10;56.20;;;;;;4996304;28;20206;-90
2022/08/15 06:48:55;;;;;;;10.90;7.93;;;26.10;56.20;;;;;;5011021;28;20237;-90
2022/08/15 06:51:25;;;;;;;11.53;7.90;;;26.10;56.20;;;;;;5013803;28;20205;-90
2022/08/15 06:53:55;;;;;;;16.80;9.00;;;26.10;56.20;;;;;;5012522;28;20265;-89
2022/08/15 06:56:32;;;;;;;11.70;7.57;;;26.20;56.50;;;;;;5006637;28;20199;-90
2022/08/15 06:59:02;;;;;;;12.87;8.60;;;26.20;56.90;;;;;;5002054;28;20206;-91
2022/08/15 07:01:46;;;;;;;14.63;8.90;;;26.20;56.70;;;;;;4993668;28;20707;-89
2022/08/15 07:04:20;;;;;;;12.57;8.13;;;26.20;56.90;;;;;;4993167;28;20262;-90
2022/08/15 07:06:52;;;;;;;12.57;8.80;;;26.20;56.80;;;;;;4993244;28;20263;-92
2022/08/15 07:09:31;;;;;;;16.50;8.50;;;26.30;56.90;;;;;;4992718;28;20620;-90
2022/08/15 07:12:08;;;;;;;11.43;8.30;;;26.30;57.20;;;;;;4994328;28;20653;-90
2022/08/15 07:14:44;;;;;;;8.67;6.27;;;26.40;57.20;;;;;;5013046;28;20235;-91
2022/08/15 07:17:37;;;;;;;8.20;6.53;;;26.40;57.00;;;;;;5013635;28;20286;-90
2022/08/15 07:20:06;;;;;;;11.60;6.90;;;26.50;57.20;;;;;;4995392;28;20289;-89
2022/08/15 07:22:34;;;;;;;16.33;8.00;;;26.50;56.80;;;;;;4992454;28;20866;-88
2022/08/15 07:25:01;;;;;;;13.70;7.83;;;26.60;56.90;;;;;;4985481;28;20209;-90
2022/08/15 07:27:32;;;;;;;13.93;8.23;;;26.60;56.90;;;;;;4994063;28;20218;-89
2022/08/15 07:30:05;;;;;;;14.53;7.10;;;26.70;56.80;;;;;;4999649;28;20254;-91
2022/08/15 07:32:48;;;;;;;10.63;6.77;;;26.70;56.60;;;;;;5002818;28;20198;-91
2022/08/15 07:35:23;;;;;;;10.10;6.80;;;26.80;56.60;;;;;;4986233;28;20852;-91
2022/08/15 07:37:56;;;;;;;9.37;6.17;;;26.90;56.40;;;;;;5001156;28;20288;-91
2022/08/15 07:40:30;;;;;;;14.90;8.30;;;27.00;56.40;;;;;;4996202;28;20213;-92
2022/08/15 07:43:00;;;;;;;13.53;8.10;;;27.10;56.70;;;;;;4975678;28;20290;-91
2022/08/15 07:45:31;;;;;;;11.10;6.30;;;27.10;56.50;;;;;;4981023;28;20209;-92
2022/08/15 07:48:01;;;;;;;9.57;6.47;;;27.30;56.60;;;;;;4993004;28;20273;-91
2022/08/15 07:50:37;;;;;;;10.73;6.93;;;27.30;56.40;;;;;;4990356;28;20202;-91
2022/08/15 07:53:13;;;;;;;11.43;7.40;;;27.40;56.60;;;;;;4989952;28;20216;-92
2022/08/15 07:55:40;;;;;;;11.63;6.20;;;27.50;56.30;;;;;;4977137;28;20301;-91
2022/08/15 07:58:21;;;;;;;12.37;7.27;;;27.50;55.70;;;;;;4982366;28;20205;-91
2022/08/15 08:01:07;;;;;;;11.77;7.00;;;27.60;55.90;;;;;;4987299;28;20208;-93
2022/08/15 08:03:36;;;;;;;11.93;7.13;;;27.70;56.00;;;;;;4988016;28;21495;-90
2022/08/15 08:06:09;;;;;;;11.07;6.63;;;27.80;55.80;;;;;;4979783;28;20801;-88
2022/08/15 08:08:44;;;;;;;11.80;6.73;;;27.80;55.80;;;;;;4988832;28;20291;-89
2022/08/15 08:11:19;;;;;;;13.17;6.93;;;27.90;55.70;;;;;;4989127;28;20213;-91
2022/08/15 08:13:56;;;;;;;12.30;7.37;;;27.90;55.70;;;;;;4988332;28;20613;-90
2022/08/15 08:16:28;;;;;;;19.20;9.30;;;28.00;55.70;;;;;;4984206;28;20966;-91
2022/08/15 08:19:03;;;;;;;12.40;7.30;;;28.00;55.70;;;;;;4996324;28;20201;-90
2022/08/15 08:21:38;;;;;;;14.77;7.70;;;28.00;55.40;;;;;;4996202;28;20205;-91
2022/08/15 08:24:15;;;;;;;14.57;8.03;;;28.00;55.40;;;;;;4993076;28;20206;-91
2022/08/15 08:26:51;;;;;;;12.27;7.63;;;28.10;55.40;;;;;;4988230;28;20693;-91
2022/08/15 08:29:27;;;;;;;12.70;7.43;;;28.10;55.40;;;;;;4985594;28;20247;-93
2022/08/15 08:32:07;;;;;;;20.70;11.13;;;28.10;55.40;;;;;;4986302;28;20689;-91
2022/08/15 08:34:41;;;;;;;14.10;8.10;;;28.10;55.40;;;;;;4993329;28;20724;-90
2022/08/15 08:37:13;;;;;;;13.93;8.07;;;28.20;55.30;;;;;;4996541;28;20229;-91
2022/08/15 08:39:49;;;;;;;12.20;7.77;;;28.20;55.30;;;;;;4990010;28;20380;-90
2022/08/15 08:42:26;;;;;;;13.50;8.00;;;28.20;55.10;;;;;;4994692;28;20197;-92
2022/08/15 08:45:06;;;;;;;10.53;7.33;;;28.30;55.00;;;;;;4995791;28;20198;-93
2022/08/15 08:47:58;;;;;;;10.07;6.37;;;28.30;55.00;;;;;;4994394;28;20917;-91
2022/08/15 08:50:31;;;;;;;12.97;6.70;;;28.30;55.00;;;;;;4991635;28;20213;-92
2022/08/15 08:53:14;;;;;;;11.07;6.53;;;28.30;55.00;;;;;;4995737;28;20209;-93
2022/08/15 08:55:49;;;;;;;12.97;7.33;;;28.40;55.10;;;;;;4994553;28;20226;-92
2022/08/15 08:58:22;;;;;;;11.00;6.20;;;28.40;55.00;;;;;;4996464;28;20296;-93
2022/08/15 09:00:51;;;;;;;10.53;6.03;;;28.40;54.90;;;;;;4995695;28;20209;-91
2022/08/15 09:03:27;;;;;;;12.93;6.80;;;28.50;55.00;;;;;;4993118;28;20322;-92
2022/08/15 09:05:58;;;;;;;11.77;6.53;;;28.50;55.00;;;;;;4996073;28;20219;-91
2022/08/15 09:08:32;;;;;;;9.80;5.83;;;28.60;55.00;;;;;;4995642;28;20300;-90
2022/08/15 09:11:03;;;;;;;10.63;5.83;;;28.60;54.80;;;;;;4996033;28;20202;-90
2022/08/15 09:13:34;;;;;;;10.17;6.30;;;28.80;54.70;;;;;;4996158;28;20290;-93
2022/08/15 09:16:14;;;;;;;8.97;5.20;;;28.80;54.50;;;;;;4994841;28;20229;-92
2022/08/15 09:18:51;;;;;;;11.07;5.83;;;28.90;54.50;;;;;;4995820;28;20281;-93
2022/08/15 09:21:18;;;;;;;12.77;6.70;;;29.00;54.40;;;;;;4997697;28;20201;-91
2022/08/15 09:23:47;;;;;;;9.20;5.97;;;29.00;54.40;;;;;;4996328;28;20232;-89
2022/08/15 09:26:21;;;;;;;7.10;5.40;;;29.10;54.30;;;;;;4995849;28;20276;-89
2022/08/15 09:29:04;;;;;;;14.60;7.57;;;29.20;54.20;;;;;;4993178;28;20679;-93
2022/08/15 09:31:40;;;;;;;10.27;6.30;;;29.20;53.80;;;;;;4994843;28;20206;-91
2022/08/15 09:34:25;;;;;;;10.13;5.60;;;29.30;53.80;;;;;;4999857;28;20221;-92
2022/08/15 09:37:16;;;;;;;10.40;6.17;;;29.40;53.80;;;;;;5007902;28;20283;-92
2022/08/15 09:40:31;;;;;;;10.83;5.43;;;29.40;54.30;;;;;;4999491;28;20260;-89
2022/08/15 09:43:46;;;;;;;10.33;5.97;;;29.50;53.50;;;;;;4958854;28;20206;-92
2022/08/15 09:53:56;;;;;;;9.20;5.63;;;30.00;52.60;;;;;;4927746;29;20240;-90
2022/08/15 09:56:27;;;;;;;13.47;6.97;;;30.10;52.40;;;;;;4925963;29;20228;-91
2022/08/15 09:58:58;;;;;;;9.37;6.10;;;30.30;52.50;;;;;;4950150;28;20214;-90
2022/08/15 10:01:29;;;;;;;8.77;5.17;;;30.40;52.10;;;;;;4991714;28;20579;-90
2022/08/15 10:04:00;;;;;;;7.22;4.57;;;30.60;51.90;;;;;;4990979;28;20209;-90
2022/08/15 10:06:58;;;;;;;12.00;6.47;;;30.70;51.80;;;;;;4990471;28;20614;-90
2022/08/15 10:09:36;;;;;;;13.10;7.18;;;30.80;50.60;;;;;;4988945;28;20296;-92
2022/08/15 10:12:22;;;;;;;10.45;5.65;;;31.00;50.70;;;;;;4989898;28;20986;-91
2022/08/15 10:15:03;;;;;;;10.43;5.78;;;31.10;50.50;;;;;;4984359;28;20257;-90
2022/08/15 10:17:44;;;;;;;8.57;5.53;;;31.20;50.50;;;;;;4988008;28;20345;-91
2022/08/15 10:20:50;;;;;;;8.68;5.72;;;31.30;50.00;;;;;;4990348;28;20210;-90
2022/08/15 10:23:31;;;;;;;11.48;6.50;;;31.40;50.00;;;;;;4989589;28;20312;-91
2022/08/15 10:26:24;;;;;;;11.52;6.90;;;31.50;50.10;;;;;;4987904;28;20216;-89
2022/08/15 10:29:05;;;;;;;9.10;5.35;;;31.60;49.50;;;;;;4987921;28;20230;-90
2022/08/15 10:31:42;;;;;;;11.15;6.97;;;31.60;49.40;;;;;;4990219;28;20199;-91
2022/08/15 10:34:29;;;;;;;10.13;5.78;;;31.60;49.20;;;;;;4990611;28;20194;-91
2022/08/15 10:37:16;;;;;;;7.28;4.93;;;31.60;49.90;;;;;;4989428;28;20210;-92
2022/08/15 10:39:59;;;;;;;10.75;5.70;;;31.60;49.30;;;;;;4988996;28;20243;-90
2022/08/15 10:42:35;;;;;;;7.93;5.40;;;31.50;48.60;;;;;;4990965;28;20195;-92
2022/08/15 10:45:13;;;;;;;8.88;5.80;;;31.60;48.90;;;;;;4989668;28;20205;-90
2022/08/15 10:47:54;;;;;;;9.82;6.25;;;31.50;48.80;;;;;;4990678;28;20272;-90
2022/08/15 10:50:26;;;;;;;7.90;5.03;;;31.40;49.10;;;;;;4988608;28;20206;-93
2022/08/15 10:53:07;;;;;;;10.52;5.78;;;31.40;49.40;;;;;;4989417;28;20304;-90
2022/08/15 10:55:36;;;;;;;10.57;5.13;;;31.30;48.90;;;;;;4991303;28;20248;-89
2022/08/15 10:58:14;;;;;;;8.40;5.63;;;31.20;49.20;;;;;;4989971;28;20233;-89
2022/08/15 11:00:53;;;;;;;10.40;6.17;;;31.20;49.00;;;;;;4989811;28;20827;-88
2022/08/15 11:03:27;;;;;;;9.63;6.03;;;31.10;49.00;;;;;;4987565;28;20209;-90
2022/08/15 11:05:59;;;;;;;9.18;5.95;;;31.10;49.20;;;;;;4990963;28;20202;-90
2022/08/15 11:08:27;;;;;;;8.17;5.57;;;31.10;49.20;;;;;;4989451;28;20214;-91
2022/08/15 11:11:00;;;;;;;9.57;6.40;;;31.00;49.20;;;;;;4988530;28;20216;-90
2022/08/15 11:13:31;;;;;;;8.23;5.80;;;31.00;49.00;;;;;;4988896;28;20206;-92
2022/08/15 11:16:07;;;;;;;8.07;5.57;;;31.00;49.30;;;;;;4991241;28;20269;-88
2022/08/15 11:18:38;;;;;;;8.27;5.43;;;31.00;49.20;;;;;;4993606;28;20253;-89
2022/08/15 11:21:18;;;;;;;8.53;5.50;;;30.90;49.20;;;;;;4992747;28;20198;-90
2022/08/15 11:23:52;;;;;;;8.37;6.23;;;30.90;49.30;;;;;;4989389;28;20214;-90
2022/08/15 11:26:27;;;;;;;8.73;6.33;;;30.90;49.50;;;;;;4989154;28;20647;-91
2022/08/15 11:29:14;;;;;;;11.88;6.20;;;30.90;49.50;;;;;;4988912;28;20205;-90
2022/08/15 11:31:53;;;;;;;12.07;6.27;;;30.90;49.30;;;;;;4989176;28;20292;-89
2022/08/15 11:34:24;;;;;;;12.97;6.77;;;31.00;49.10;;;;;;4986045;28;20260;-88
2022/08/15 11:36:53;;;;;;;13.33;7.30;;;31.00;49.20;;;;;;4988937;28;20245;-89
2022/08/15 11:39:21;;;;;;;11.50;6.60;;;31.00;49.30;;;;;;4988726;28;20202;-90
2022/08/15 11:41:51;;;;;;;10.50;6.43;;;31.00;49.20;;;;;;4989781;28;20218;-91
2022/08/15 11:44:22;;;;;;;11.67;6.80;;;31.00;49.20;;;;;;4986359;28;20202;-90
2022/08/15 11:46:49;;;;;;;12.73;7.40;;;31.10;49.20;;;;;;4984724;28;20264;-90
2022/08/15 11:49:28;;;;;;;10.98;6.20;;;31.10;49.40;;;;;;4987241;28;20207;-89
2022/08/15 11:52:03;;;;;;;10.13;6.00;;;31.20;49.20;;;;;;4986718;28;20257;-89
2022/08/15 11:54:30;;;;;;;8.95;5.50;;;31.20;49.20;;;;;;4995122;28;20212;-89
2022/08/15 11:57:01;;;;;;;7.63;5.38;;;31.30;48.90;;;;;;5000703;28;20237;-92
2022/08/15 11:59:58;;;;;;;8.82;4.82;;;31.40;48.90;;;;;;4996341;28;20193;-92
2022/08/15 12:02:34;;;;;;;11.88;7.35;;;31.50;48.90;;;;;;5005371;28;20218;-93
2022/08/15 12:05:14;;;;;;;10.00;5.88;;;31.60;48.20;;;;;;5007886;28;20206;-90
2022/08/15 12:07:49;;;;;;;10.60;6.15;;;31.70;48.30;;;;;;5008534;28;20198;-93
2022/08/15 12:10:26;;;;;;;8.38;4.70;;;31.80;48.30;;;;;;4994660;28;20200;-89
2022/08/15 12:12:53;;;;;;;10.85;6.47;;;32.00;48.40;;;;;;4991647;28;20221;-89
2022/08/15 12:15:26;;;;;;;8.68;5.53;;;32.10;48.50;;;;;;4992924;28;20218;-92
2022/08/15 12:18:09;;;;;;;9.27;5.72;;;32.20;47.90;;;;;;4997663;28;20245;-90
2022/08/15 12:20:41;;;;;;;6.63;4.50;;;32.30;47.50;;;;;;4993022;28;20266;-89
2022/08/15 12:23:34;;;;;;;7.70;5.00;;;32.50;47.70;;;;;;4994433;28;20217;-90
2022/08/15 12:26:05;;;;;;;11.95;5.93;;;32.50;46.90;;;;;;4991140;28;20206;-92
2022/08/15 12:28:33;;;;;;;8.40;5.45;;;32.70;46.90;;;;;;4991622;28;20241;-89
2022/08/15 12:31:05;;;;;;;7.25;5.13;;;32.80;46.70;;;;;;4990150;28;20222;-91
2022/08/15 12:33:34;;;;;;;9.40;5.43;;;32.80;46.20;;;;;;4989944;28;20237;-88
2022/08/15 12:36:02;;;;;;;14.32;8.13;;;32.90;46.30;;;;;;4987918;28;20234;-90
2022/08/15 12:38:31;;;;;;;9.00;5.38;;;32.90;46.00;;;;;;4991591;28;20209;-91
2022/08/15 12:41:04;;;;;;;7.20;5.13;;;32.90;45.50;;;;;;4991597;28;20206;-95
2022/08/15 12:43:34;;;;;;;5.03;4.05;;;32.90;45.10;;;;;;4995227;28;20852;-96
2022/08/15 12:46:38;;;;;;;9.65;6.07;;;32.90;45.90;;;;;;4991751;28;20630;-93
2022/08/15 12:49:10;;;;;;;6.82;4.65;;;32.90;44.80;;;;;;4948236;28;20208;-94
2022/08/15 12:51:39;;;;;;;7.35;4.22;;;33.00;45.00;;;;;;4996234;28;20225;-95
2022/08/15 12:54:06;;;;;;;11.52;5.10;;;33.00;44.40;;;;;;5000477;28;20214;-96
2022/08/15 12:56:34;;;;;;;5.90;4.30;;;33.00;44.20;;;;;;4998978;28;20804;-93
2022/08/15 12:59:05;;;;;;;6.30;4.53;;;33.10;43.50;;;;;;5002460;28;20221;-96
2022/08/15 13:01:37;;;;;;;7.57;3.45;;;33.10;43.50;;;;;;5001070;28;20274;-96
2022/08/15 13:04:12;;;;;;;6.60;3.92;;;33.10;43.30;;;;;;4982822;28;20198;-95
2022/08/15 13:06:46;;;;;;;6.10;4.55;;;33.10;43.40;;;;;;4994745;28;20265;-96
2022/08/15 13:09:21;;;;;;;5.47;3.25;;;33.10;43.30;;;;;;4999806;28;20209;-96
2022/08/15 13:11:52;;;;;;;8.20;5.43;;;33.20;42.40;;;;;;4986088;28;20226;-96
2022/08/15 13:14:20;;;;;;;6.85;4.13;;;33.30;42.60;;;;;;4997697;28;20194;-95
2022/08/15 13:16:49;;;;;;;8.05;4.97;;;33.30;42.20;;;;;;5007118;28;20268;-95
2022/08/15 13:19:25;;;;;;;7.07;4.13;;;33.30;42.20;;;;;;5006028;28;20202;-94
2022/08/15 13:24:40;;;;;;;9.52;4.32;;;33.40;42.10;;;;;;5001122;28;20190;-94